sensor_id;sensor_type;location;lat;lon;timestamp;temperature;humidity
16625;DHT22;8426;48.496;9.098;2022-09-03T00:02:37;16.60;99.90
16625;DHT22;8426;48.496;9.098;2022-09-03T00:07:48;16.50;99.90
16625;DHT22;8426;48.496;9.098;2022-09-03T00:12:58;16.50;99.90
16625;DHT22;8426;48.496;9.098;2022-09-03T00:18:07;16.40;99.90
16625;DHT22;8426;48.496;9.098;2022-09-03T00:23:17;16.40;99.90
16625;DHT22;8426;48.496;9.098;2022-09-03T00:28:25;16.30;99.90
16625;DHT22;8426;48.496;9.098;2022-09-03T00:33:31;16.20;99.90
16625;DHT22;8426;48.496;9.098;2022-09-03T00:38:37;16.20;99.90
16625;DHT22;8426;48.496;9.098;2022-09-03T00:43:56;16.10;99.90
16625;DHT22;8426;48.496;9.098;2022-09-03T00:49:23;16.00;99.90
16625;DHT22;8426;48.496;9.098;2022-09-03T00:54:38;16.00;99.90
16625;DHT22;8426;48.496;9.098;2022-09-03T00:59:54;16.00;99.90
16625;DHT22;8426;48.496;9.098;2022-09-03T01:05:05;16.10;99.90
16625;DHT22;8426;48.496;9.098;2022-09-03T01:10:25;16.20;99.90
16625;DHT22;8426;48.496;9.098;2022-09-03T01:15:43;16.10;99.90
16625;DHT22;8426;48.496;9.098;2022-09-03T01:20:54;16.20;99.90
16625;DHT22;8426;48.496;9.098;2022-09-03T01:26:15;16.20;99.90
16625;DHT22;8426;48.496;9.098;2022-09-03T01:31:32;16.20;99.90
16625;DHT22;8426;48.496;9.098;2022-09-03T01:36:45;16.10;99.90
16625;DHT22;8426;48.496;9.098;2022-09-03T01:42:00;16.10;99.90
16625;DHT22;8426;48.496;9.098;2022-09-03T01:47:30;16.10;99.90
16625;DHT22;8426;48.496;9.098;2022-09-03T01:52:42;16.10;99.90
16625;DHT22;8426;48.496;9.098;2022-09-03T01:57:52;16.00;99.90
16625;DHT22;8426;48.496;9.098;2022-09-03T02:03:04;15.90;99.90
16625;DHT22;8426;48.496;9.098;2022-09-03T02:08:10;15.80;99.90
16625;DHT22;8426;48.496;9.098;2022-09-03T02:13:17;15.80;99.90
16625;DHT22;8426;48.496;9.098;2022-09-03T02:18:39;15.70;99.90
16625;DHT22;8426;48.496;9.098;2022-09-03T02:23:49;15.60;99.90
16625;DHT22;8426;48.496;9.098;2022-09-03T02:28:55;15.50;99.90
16625;DHT22;8426;48.496;9.098;2022-09-03T02:34:00;15.40;99.90
16625;DHT22;8426;48.496;9.098;2022-09-03T02:39:04;15.20;99.90
16625;DHT22;8426;48.496;9.098;2022-09-03T02:44:12;15.20;99.90
16625;DHT22;8426;48.496;9.098;2022-09-03T02:49:18;15.20;99.90
16625;DHT22;8426;48.496;9.098;2022-09-03T02:54:22;15.10;99.90
16625;DHT22;8426;48.496;9.098;2022-09-03T02:59:25;14.90;99.90
16625;DHT22;8426;48.496;9.098;2022-09-03T03:04:31;14.70;99.90
16625;DHT22;8426;48.496;9.098;2022-09-03T03:09:35;14.50;99.90
16625;DHT22;8426;48.496;9.098;2022-09-03T03:14:38;14.40;99.90
16625;DHT22;8426;48.496;9.098;2022-09-03T03:19:43;14.40;99.90
16625;DHT22;8426;48.496;9.098;2022-09-03T03:24:46;14.50;99.90
16625;DHT22;8426;48.496;9.098;2022-09-03T03:29:51;14.50;99.90
16625;DHT22;8426;48.496;9.098;2022-09-03T03:34:57;14.50;99.90
16625;DHT22;8426;48.496;9.098;2022-09-03T03:40:00;14.50;99.90
16625;DHT22;8426;48.496;9.098;2022-09-03T03:45:06;14.60;99.90
16625;DHT22;8426;48.496;9.098;2022-09-03T03:50:12;14.60;99.90
16625;DHT22;8426;48.496;9.098;2022-09-03T03:55:15;14.70;99.90
16625;DHT22;8426;48.496;9.098;2022-09-03T04:00:19;14.80;99.90
16625;DHT22;8426;48.496;9.098;2022-09-03T04:05:27;14.80;99.90
16625;DHT22;8426;48.496;9.098;2022-09-03T04:10:35;14.80;99.90
16625;DHT22;8426;48.496;9.098;2022-09-03T04:15:38;14.80;99.90
16625;DHT22;8426;48.496;9.098;2022-09-03T04:20:44;14.80;99.90
16625;DHT22;8426;48.496;9.098;2022-09-03T04:25:51;14.80;99.90
16625;DHT22;8426;48.496;9.098;2022-09-03T04:30:59;14.80;99.90
16625;DHT22;8426;48.496;9.098;2022-09-03T04:36:08;14.80;99.90
16625;DHT22;8426;48.496;9.098;2022-09-03T04:41:12;14.80;99.90
16625;DHT22;8426;48.496;9.098;2022-09-03T04:46:16;14.70;99.90
16625;DHT22;8426;48.496;9.098;2022-09-03T04:51:23;14.70;99.90
16625;DHT22;8426;48.496;9.098;2022-09-03T04:56:29;14.70;99.90
16625;DHT22;8426;48.496;9.098;2022-09-03T05:01:35;14.80;99.90
16625;DHT22;8426;48.496;9.098;2022-09-03T05:06:40;14.80;99.90
16625;DHT22;8426;48.496;9.098;2022-09-03T05:11:44;14.80;99.90
16625;DHT22;8426;48.496;9.098;2022-09-03T05:16:47;14.80;99.90
16625;DHT22;8426;48.496;9.098;2022-09-03T05:21:55;14.80;99.90
16625;DHT22;8426;48.496;9.098;2022-09-03T05:26:58;15.00;99.90
16625;DHT22;8426;48.496;9.098;2022-09-03T05:32:02;15.10;99.90
16625;DHT22;8426;48.496;9.098;2022-09-03T05:37:09;15.40;99.90
16625;DHT22;8426;48.496;9.098;2022-09-03T05:42:13;15.50;99.90
16625;DHT22;8426;48.496;9.098;2022-09-03T05:47:17;15.70;99.90
16625;DHT22;8426;48.496;9.098;2022-09-03T05:52:21;15.90;99.90
16625;DHT22;8426;48.496;9.098;2022-09-03T05:57:29;16.00;99.90
16625;DHT22;8426;48.496;9.098;2022-09-03T06:02:33;16.20;99.90
16625;DHT22;8426;48.496;9.098;2022-09-03T06:07:38;16.40;99.90
16625;DHT22;8426;48.496;9.098;2022-09-03T06:12:44;16.60;99.90
16625;DHT22;8426;48.496;9.098;2022-09-03T06:17:50;16.70;99.90
16625;DHT22;8426;48.496;9.098;2022-09-03T06:22:56;16.80;99.90
16625;DHT22;8426;48.496;9.098;2022-09-03T06:28:02;17.10;99.90
16625;DHT22;8426;48.496;9.098;2022-09-03T06:33:07;17.50;99.90
16625;DHT22;8426;48.496;9.098;2022-09-03T06:38:12;18.10;99.90
16625;DHT22;8426;48.496;9.098;2022-09-03T06:43:17;18.50;99.90
16625;DHT22;8426;48.496;9.098;2022-09-03T06:48:20;18.70;99.90
16625;DHT22;8426;48.496;9.098;2022-09-03T06:53:27;18.90;99.90
16625;DHT22;8426;48.496;9.098;2022-09-03T06:58:35;18.60;99.90
16625;DHT22;8426;48.496;9.098;2022-09-03T07:03:41;18.30;99.90
16625;DHT22;8426;48.496;9.098;2022-09-03T07:08:48;17.90;99.90
16625;DHT22;8426;48.496;9.098;2022-09-03T07:13:52;17.70;99.90
16625;DHT22;8426;48.496;9.098;2022-09-03T07:18:56;17.60;99.90
16625;DHT22;8426;48.496;9.098;2022-09-03T07:24:04;17.70;99.90
16625;DHT22;8426;48.496;9.098;2022-09-03T07:29:08;17.80;99.90
16625;DHT22;8426;48.496;9.098;2022-09-03T07:34:13;18.00;99.90
16625;DHT22;8426;48.496;9.098;2022-09-03T07:39:19;18.00;99.90
16625;DHT22;8426;48.496;9.098;2022-09-03T07:44:22;18.40;99.90
16625;DHT22;8426;48.496;9.098;2022-09-03T07:49:25;18.80;99.90
16625;DHT22;8426;48.496;9.098;2022-09-03T07:54:30;19.10;99.90
16625;DHT22;8426;48.496;9.098;2022-09-03T07:59:33;20.50;99.90
16625;DHT22;8426;48.496;9.098;2022-09-03T08:04:37;21.70;99.90
16625;DHT22;8426;48.496;9.098;2022-09-03T08:09:43;24.00;99.90
16625;DHT22;8426;48.496;9.098;2022-09-03T08:14:46;26.00;99.90
16625;DHT22;8426;48.496;9.098;2022-09-03T08:19:50;26.00;99.90
16625;DHT22;8426;48.496;9.098;2022-09-03T08:24:54;26.60;99.90
16625;DHT22;8426;48.496;9.098;2022-09-03T08:29:58;29.20;99.90
16625;DHT22;8426;48.496;9.098;2022-09-03T08:35:01;29.70;99.90
16625;DHT22;8426;48.496;9.098;2022-09-03T08:40:08;29.30;99.10
16625;DHT22;8426;48.496;9.098;2022-09-03T08:45:14;29.80;98.00
16625;DHT22;8426;48.496;9.098;2022-09-03T08:50:24;30.40;95.90
16625;DHT22;8426;48.496;9.098;2022-09-03T08:55:34;32.20;93.70
16625;DHT22;8426;48.496;9.098;2022-09-03T09:00:48;31.90;93.00
16625;DHT22;8426;48.496;9.098;2022-09-03T09:05:57;29.90;94.90
16625;DHT22;8426;48.496;9.098;2022-09-03T09:11:10;28.60;98.00
16625;DHT22;8426;48.496;9.098;2022-09-03T09:16:22;28.30;98.20
16625;DHT22;8426;48.496;9.098;2022-09-03T09:21:33;27.90;98.60
16625;DHT22;8426;48.496;9.098;2022-09-03T09:26:40;26.10;99.10
16625;DHT22;8426;48.496;9.098;2022-09-03T09:31:44;25.70;99.50
16625;DHT22;8426;48.496;9.098;2022-09-03T09:36:52;26.40;99.30
16625;DHT22;8426;48.496;9.098;2022-09-03T09:42:01;25.60;99.90
16625;DHT22;8426;48.496;9.098;2022-09-03T09:47:12;25.20;99.90
16625;DHT22;8426;48.496;9.098;2022-09-03T09:52:19;26.00;99.90
16625;DHT22;8426;48.496;9.098;2022-09-03T09:57:28;26.20;99.90
16625;DHT22;8426;48.496;9.098;2022-09-03T10:02:34;25.30;99.90
16625;DHT22;8426;48.496;9.098;2022-09-03T10:07:39;24.60;99.90
16625;DHT22;8426;48.496;9.098;2022-09-03T10:12:47;24.60;99.90
16625;DHT22;8426;48.496;9.098;2022-09-03T10:17:59;25.70;99.90
16625;DHT22;8426;48.496;9.098;2022-09-03T10:23:11;26.00;99.90
16625;DHT22;8426;48.496;9.098;2022-09-03T10:28:17;26.40;99.90
16625;DHT22;8426;48.496;9.098;2022-09-03T10:33:25;26.00;99.90
16625;DHT22;8426;48.496;9.098;2022-09-03T10:38:32;25.10;99.90
16625;DHT22;8426;48.496;9.098;2022-09-03T10:43:59;25.00;99.90
16625;DHT22;8426;48.496;9.098;2022-09-03T10:49:18;25.00;99.90
16625;DHT22;8426;48.496;9.098;2022-09-03T10:54:44;25.00;99.90
16625;DHT22;8426;48.496;9.098;2022-09-03T11:00:01;24.90;99.90
16625;DHT22;8426;48.496;9.098;2022-09-03T11:05:11;24.80;99.90
16625;DHT22;8426;48.496;9.098;2022-09-03T11:10:19;24.60;99.90
16625;DHT22;8426;48.496;9.098;2022-09-03T11:15:35;23.80;99.90
16625;DHT22;8426;48.496;9.098;2022-09-03T11:20:40;23.00;99.90
16625;DHT22;8426;48.496;9.098;2022-09-03T11:25:50;22.10;99.90
16625;DHT22;8426;48.496;9.098;2022-09-03T11:31:13;21.60;99.90
16625;DHT22;8426;48.496;9.098;2022-09-03T11:36:28;21.00;99.90
16625;DHT22;8426;48.496;9.098;2022-09-03T11:41:34;20.20;99.90
16625;DHT22;8426;48.496;9.098;2022-09-03T11:46:54;18.40;99.90
16625;DHT22;8426;48.496;9.098;2022-09-03T11:52:03;17.10;99.90
16625;DHT22;8426;48.496;9.098;2022-09-03T11:57:12;16.70;99.90
16625;DHT22;8426;48.496;9.098;2022-09-03T12:02:25;16.60;99.90
16625;DHT22;8426;48.496;9.098;2022-09-03T12:07:44;16.50;99.90
16625;DHT22;8426;48.496;9.098;2022-09-03T12:13:01;16.40;99.90
16625;DHT22;8426;48.496;9.098;2022-09-03T12:18:11;16.40;99.90
16625;DHT22;8426;48.496;9.098;2022-09-03T12:23:31;16.40;99.90
16625;DHT22;8426;48.496;9.098;2022-09-03T12:28:38;16.60;99.90
16625;DHT22;8426;48.496;9.098;2022-09-03T12:33:48;16.80;99.90
16625;DHT22;8426;48.496;9.098;2022-09-03T12:38:53;17.10;99.90
16625;DHT22;8426;48.496;9.098;2022-09-03T12:44:31;17.40;99.90
16625;DHT22;8426;48.496;9.098;2022-09-03T12:49:41;17.70;99.90
16625;DHT22;8426;48.496;9.098;2022-09-03T12:54:55;17.90;99.90
16625;DHT22;8426;48.496;9.098;2022-09-03T13:00:03;18.20;99.90
16625;DHT22;8426;48.496;9.098;2022-09-03T13:05:15;18.60;99.90
16625;DHT22;8426;48.496;9.098;2022-09-03T13:10:24;18.80;99.90
16625;DHT22;8426;48.496;9.098;2022-09-03T13:15:29;19.00;99.90
16625;DHT22;8426;48.496;9.098;2022-09-03T13:20:42;19.10;99.90
16625;DHT22;8426;48.496;9.098;2022-09-03T13:25:58;19.50;99.90
16625;DHT22;8426;48.496;9.098;2022-09-03T13:31:17;19.90;99.90
16625;DHT22;8426;48.496;9.098;2022-09-03T13:36:28;20.00;99.90
16625;DHT22;8426;48.496;9.098;2022-09-03T13:41:37;20.40;99.90
16625;DHT22;8426;48.496;9.098;2022-09-03T13:46:47;20.30;99.90
16625;DHT22;8426;48.496;9.098;2022-09-03T13:51:57;20.90;99.90
16625;DHT22;8426;48.496;9.098;2022-09-03T13:57:04;21.40;99.90
16625;DHT22;8426;48.496;9.098;2022-09-03T14:02:19;21.80;99.90
16625;DHT22;8426;48.496;9.098;2022-09-03T14:07:40;21.90;99.90
16625;DHT22;8426;48.496;9.098;2022-09-03T14:12:48;21.40;99.90
16625;DHT22;8426;48.496;9.098;2022-09-03T14:18:00;21.00;99.90
16625;DHT22;8426;48.496;9.098;2022-09-03T14:23:23;20.90;99.90
16625;DHT22;8426;48.496;9.098;2022-09-03T14:28:32;21.30;99.90
16625;DHT22;8426;48.496;9.098;2022-09-03T14:33:42;21.70;99.90
16625;DHT22;8426;48.496;9.098;2022-09-03T14:39:00;21.90;99.90
16625;DHT22;8426;48.496;9.098;2022-09-03T14:49:47;21.70;99.90
16625;DHT22;8426;48.496;9.098;2022-09-03T14:55:14;21.80;99.90
16625;DHT22;8426;48.496;9.098;2022-09-03T15:00:32;21.30;99.90
16625;DHT22;8426;48.496;9.098;2022-09-03T15:05:45;21.00;99.90
16625;DHT22;8426;48.496;9.098;2022-09-03T15:10:55;20.90;99.90
16625;DHT22;8426;48.496;9.098;2022-09-03T15:16:11;21.00;99.90
16625;DHT22;8426;48.496;9.098;2022-09-03T15:21:27;21.40;99.90
16625;DHT22;8426;48.496;9.098;2022-09-03T15:26:52;21.70;99.90
16625;DHT22;8426;48.496;9.098;2022-09-03T15:32:05;22.10;99.90
16625;DHT22;8426;48.496;9.098;2022-09-03T15:37:22;21.90;99.90
16625;DHT22;8426;48.496;9.098;2022-09-03T15:42:30;21.90;99.90
16625;DHT22;8426;48.496;9.098;2022-09-03T15:47:44;21.90;99.90
16625;DHT22;8426;48.496;9.098;2022-09-03T15:53:00;21.90;99.90
16625;DHT22;8426;48.496;9.098;2022-09-03T15:58:17;21.90;99.90
16625;DHT22;8426;48.496;9.098;2022-09-03T16:03:36;22.00;99.90
16625;DHT22;8426;48.496;9.098;2022-09-03T16:08:52;22.00;99.90
16625;DHT22;8426;48.496;9.098;2022-09-03T16:14:05;21.70;99.90
16625;DHT22;8426;48.496;9.098;2022-09-03T16:19:14;21.60;99.90
16625;DHT22;8426;48.496;9.098;2022-09-03T16:24:22;21.40;99.90
16625;DHT22;8426;48.496;9.098;2022-09-03T16:29:30;21.30;99.90
16625;DHT22;8426;48.496;9.098;2022-09-03T16:34:49;21.10;99.90
16625;DHT22;8426;48.496;9.098;2022-09-03T16:40:17;20.80;99.90
16625;DHT22;8426;48.496;9.098;2022-09-03T16:45:39;20.40;99.90
16625;DHT22;8426;48.496;9.098;2022-09-03T16:50:51;20.20;99.90
16625;DHT22;8426;48.496;9.098;2022-09-03T16:56:09;20.20;99.90
16625;DHT22;8426;48.496;9.098;2022-09-03T17:01:28;20.20;99.90
16625;DHT22;8426;48.496;9.098;2022-09-03T17:06:53;20.30;99.90
16625;DHT22;8426;48.496;9.098;2022-09-03T17:12:04;20.30;99.90
16625;DHT22;8426;48.496;9.098;2022-09-03T17:17:22;20.20;99.90
16625;DHT22;8426;48.496;9.098;2022-09-03T17:22:38;20.00;99.90
16625;DHT22;8426;48.496;9.098;2022-09-03T17:27:51;19.90;99.90
16625;DHT22;8426;48.496;9.098;2022-09-03T17:33:36;19.70;99.90
16625;DHT22;8426;48.496;9.098;2022-09-03T17:44:49;19.20;99.90
16625;DHT22;8426;48.496;9.098;2022-09-03T17:50:13;18.90;99.90
16625;DHT22;8426;48.496;9.098;2022-09-03T17:55:25;18.60;99.90
16625;DHT22;8426;48.496;9.098;2022-09-03T18:00:48;18.40;99.90
16625;DHT22;8426;48.496;9.098;2022-09-03T18:06:02;18.10;99.90
16625;DHT22;8426;48.496;9.098;2022-09-03T18:11:09;17.80;99.90
16625;DHT22;8426;48.496;9.098;2022-09-03T18:16:23;17.60;99.90
16625;DHT22;8426;48.496;9.098;2022-09-03T18:21:36;17.50;99.90
16625;DHT22;8426;48.496;9.098;2022-09-03T18:27:14;17.40;99.90
16625;DHT22;8426;48.496;9.098;2022-09-03T18:32:37;17.30;99.90
16625;DHT22;8426;48.496;9.098;2022-09-03T18:38:04;17.20;99.90
16625;DHT22;8426;48.496;9.098;2022-09-03T18:43:31;17.10;99.90
16625;DHT22;8426;48.496;9.098;2022-09-03T18:49:10;17.00;99.90
16625;DHT22;8426;48.496;9.098;2022-09-03T18:54:47;17.00;99.90
16625;DHT22;8426;48.496;9.098;2022-09-03T19:00:15;16.90;99.90
16625;DHT22;8426;48.496;9.098;2022-09-03T19:05:59;16.70;99.90
16625;DHT22;8426;48.496;9.098;2022-09-03T19:11:28;16.50;99.90
16625;DHT22;8426;48.496;9.098;2022-09-03T19:17:02;16.40;99.90
16625;DHT22;8426;48.496;9.098;2022-09-03T19:22:31;16.20;99.90
16625;DHT22;8426;48.496;9.098;2022-09-03T19:28:11;16.10;99.90
16625;DHT22;8426;48.496;9.098;2022-09-03T19:33:37;15.90;99.90
16625;DHT22;8426;48.496;9.098;2022-09-03T19:39:32;15.90;99.90
16625;DHT22;8426;48.496;9.098;2022-09-03T19:45:18;16.00;99.90
16625;DHT22;8426;48.496;9.098;2022-09-03T19:51:01;16.00;99.90
16625;DHT22;8426;48.496;9.098;2022-09-03T19:56:27;16.20;99.90
16625;DHT22;8426;48.496;9.098;2022-09-03T20:01:51;16.30;99.90
16625;DHT22;8426;48.496;9.098;2022-09-03T20:07:14;16.30;99.90
16625;DHT22;8426;48.496;9.098;2022-09-03T20:12:57;16.40;99.90
16625;DHT22;8426;48.496;9.098;2022-09-03T20:18:07;16.30;99.90
16625;DHT22;8426;48.496;9.098;2022-09-03T20:23:31;16.30;99.90
16625;DHT22;8426;48.496;9.098;2022-09-03T20:29:00;16.20;99.90
16625;DHT22;8426;48.496;9.098;2022-09-03T20:34:17;16.10;99.90
16625;DHT22;8426;48.496;9.098;2022-09-03T20:39:31;15.90;99.90
16625;DHT22;8426;48.496;9.098;2022-09-03T20:45:01;15.80;99.90
16625;DHT22;8426;48.496;9.098;2022-09-03T20:55:51;15.50;99.90
16625;DHT22;8426;48.496;9.098;2022-09-03T21:01:03;15.30;99.90
16625;DHT22;8426;48.496;9.098;2022-09-03T21:06:22;15.20;99.90
16625;DHT22;8426;48.496;9.098;2022-09-03T21:11:38;15.20;99.90
16625;DHT22;8426;48.496;9.098;2022-09-03T21:17:04;15.30;99.90
16625;DHT22;8426;48.496;9.098;2022-09-03T21:22:28;15.30;99.90
16625;DHT22;8426;48.496;9.098;2022-09-03T21:27:50;15.40;99.90
16625;DHT22;8426;48.496;9.098;2022-09-03T21:33:01;15.50;99.90
16625;DHT22;8426;48.496;9.098;2022-09-03T21:38:10;15.50;99.90
16625;DHT22;8426;48.496;9.098;2022-09-03T21:43:20;15.40;99.90
16625;DHT22;8426;48.496;9.098;2022-09-03T21:48:31;15.30;99.90
16625;DHT22;8426;48.496;9.098;2022-09-03T21:53:40;15.20;99.90
16625;DHT22;8426;48.496;9.098;2022-09-03T21:59:03;15.10;99.90
16625;DHT22;8426;48.496;9.098;2022-09-03T22:04:17;15.00;99.90
16625;DHT22;8426;48.496;9.098;2022-09-03T22:09:23;14.90;99.90
16625;DHT22;8426;48.496;9.098;2022-09-03T22:14:35;14.90;99.90
16625;DHT22;8426;48.496;9.098;2022-09-03T22:19:44;14.80;99.90
16625;DHT22;8426;48.496;9.098;2022-09-03T22:24:53;14.70;99.90
16625;DHT22;8426;48.496;9.098;2022-09-03T22:30:08;14.70;99.90
16625;DHT22;8426;48.496;9.098;2022-09-03T22:35:43;14.70;99.90
16625;DHT22;8426;48.496;9.098;2022-09-03T22:41:01;14.50;99.90
16625;DHT22;8426;48.496;9.098;2022-09-03T22:46:22;14.50;99.90
16625;DHT22;8426;48.496;9.098;2022-09-03T22:51:45;14.40;99.90
16625;DHT22;8426;48.496;9.098;2022-09-03T22:56:53;14.40;99.90
16625;DHT22;8426;48.496;9.098;2022-09-03T23:02:12;14.30;99.90
16625;DHT22;8426;48.496;9.098;2022-09-03T23:07:21;14.30;99.90
16625;DHT22;8426;48.496;9.098;2022-09-03T23:12:35;14.20;99.90
16625;DHT22;8426;48.496;9.098;2022-09-03T23:17:43;14.30;99.90
16625;DHT22;8426;48.496;9.098;2022-09-03T23:22:50;14.30;99.90
16625;DHT22;8426;48.496;9.098;2022-09-03T23:28:08;14.30;99.90
16625;DHT22;8426;48.496;9.098;2022-09-03T23:33:14;14.30;99.90
16625;DHT22;8426;48.496;9.098;2022-09-03T23:38:24;14.30;99.90
16625;DHT22;8426;48.496;9.098;2022-09-03T23:43:59;14.20;99.90
16625;DHT22;8426;48.496;9.098;2022-09-03T23:49:26;14.10;99.90
16625;DHT22;8426;48.496;9.098;2022-09-03T23:54:45;13.90;99.90
